Time;durP1;ratioP1;P1;durP2;ratioP2;P2;SDS_P1;SDS_P2;PMS_P1;PMS_P2;Temp;Humidity;BMP_temperature;BMP_pressure;BME280_temperature;BME280_humidity;BME280_pressure;Samples;Min_cycle;Max_cycle;Signal;HPM_P1;HPM_P2
2024/01/24 00:01:48;;;;;;;36.97;13.98;;;;;;;-11.17;100.00;98981.34;6206926;23;20028;-58
2024/01/24 00:04:20;;;;;;;37.58;15.73;;;;;;;-11.15;100.00;98984.81;6192166;23;20386;-59
2024/01/24 00:06:50;;;;;;;36.42;13.95;;;;;;;-11.15;100.00;98974.72;6206265;23;20134;-58
2024/01/24 00:09:22;;;;;;;62.78;20.20;;;;;;;-11.18;100.00;98974.56;6191657;23;20024;-57
2024/01/24 00:11:53;;;;;;;45.10;14.68;;;;;;;-11.18;100.00;98975.44;6206162;23;20023;-58
2024/01/24 00:14:23;;;;;;;48.13;14.27;;;;;;;-11.16;100.00;98975.50;6191900;23;20516;-56
2024/01/24 00:16:54;;;;;;;56.22;17.83;;;;;;;-11.16;100.00;98978.88;6206198;23;20016;-58
2024/01/24 00:19:24;;;;;;;59.55;21.08;;;;;;;-11.19;100.00;98968.66;6192915;23;20500;-55
2024/01/24 00:21:55;;;;;;;51.08;16.90;;;;;;;-11.17;100.00;98978.84;6207109;23;20024;-58
2024/01/24 00:24:27;;;;;;;63.10;19.48;;;;;;;-11.17;100.00;98966.22;6191769;23;20028;-57
2024/01/24 00:26:57;;;;;;;36.08;13.55;;;;;;;-11.11;100.00;98966.50;6206630;23;20024;-57
2024/01/24 00:29:28;;;;;;;38.95;13.75;;;;;;;-11.08;100.00;98967.53;6191326;23;20059;-59
2024/01/24 00:31:58;;;;;;;41.15;15.50;;;;;;;-11.06;100.00;98949.94;6206536;23;20491;-57
2024/01/24 00:34:28;;;;;;;41.60;13.70;;;;;;;-11.04;100.00;98950.88;6192258;23;20036;-56
2024/01/24 00:36:59;;;;;;;39.17;13.23;;;;;;;-11.00;100.00;98947.72;6206021;23;20396;-58
2024/01/24 00:39:31;;;;;;;40.90;17.38;;;;;;;-10.99;100.00;98962.03;6191602;23;20111;-58
2024/01/24 00:42:01;;;;;;;35.80;14.02;;;;;;;-10.98;100.00;98958.75;6206043;23;20026;-55
2024/01/24 00:44:33;;;;;;;21.15;7.93;;;;;;;-11.06;100.00;98929.75;6191772;23;20420;-59
2024/01/24 00:47:03;;;;;;;30.02;11.85;;;;;;;-10.92;100.00;98943.88;6206528;23;20708;-59
2024/01/24 00:49:33;;;;;;;24.13;10.30;;;;;;;-10.91;100.00;98949.78;6192151;23;20024;-57
2024/01/24 00:52:05;;;;;;;23.63;10.23;;;;;;;-10.89;100.00;98933.94;6206177;23;20266;-57
2024/01/24 00:54:37;;;;;;;29.75;11.40;;;;;;;-10.87;100.00;98926.44;6191355;23;20046;-57
2024/01/24 00:57:16;;;;;;;29.45;10.23;;;;;;;-10.86;100.00;98939.16;6206399;23;20059;-58
2024/01/24 00:59:46;;;;;;;40.13;12.85;;;;;;;-10.88;100.00;98940.72;6199269;23;20161;-57
2024/01/24 01:02:17;;;;;;;22.10;7.57;;;;;;;-10.82;100.00;98929.19;6188730;23;20107;-57
2024/01/24 01:04:47;;;;;;;16.55;9.32;;;;;;;-10.79;100.00;98924.28;6204100;23;20016;-60
2024/01/24 01:07:18;;;;;;;33.25;10.73;;;;;;;-10.80;100.00;98922.56;6188680;23;20016;-59
2024/01/24 01:09:50;;;;;;;40.60;13.23;;;;;;;-10.82;100.00;98940.16;6203448;23;20937;-58
2024/01/24 01:12:20;;;;;;;25.20;9.65;;;;;;;-10.80;100.00;98933.50;6184463;23;20035;-60
2024/01/24 01:14:51;;;;;;;17.73;8.02;;;;;;;-10.76;100.00;98926.94;6203661;23;20111;-60
2024/01/24 01:17:21;;;;;;;26.65;8.25;;;;;;;-10.71;100.00;98930.53;6203973;23;20115;-57
2024/01/24 01:19:52;;;;;;;41.28;16.38;;;;;;;-10.74;100.00;98941.34;6203481;23;20352;-59
2024/01/24 01:22:22;;;;;;;29.38;10.55;;;;;;;-10.67;100.00;98910.56;6189059;23;20612;-59
2024/01/24 01:24:54;;;;;;;31.38;10.95;;;;;;;-10.62;100.00;98908.25;6203245;23;20372;-59
2024/01/24 01:27:27;;;;;;;34.55;12.15;;;;;;;-10.62;100.00;98915.81;6188770;23;20024;-60
2024/01/24 01:29:57;;;;;;;18.00;8.75;;;;;;;-10.62;100.00;98908.25;6203343;23;20555;-59
2024/01/24 01:32:28;;;;;;;41.08;16.92;;;;;;;-10.69;100.00;98906.25;6188325;23;20085;-59
2024/01/24 01:34:59;;;;;;;32.33;11.90;;;;;;;-10.90;100.00;98871.66;6203233;23;20017;-59
2024/01/24 01:37:29;;;;;;;22.67;8.10;;;;;;;-10.60;100.00;98921.81;6189046;23;20039;-56
2024/01/24 01:40:01;;;;;;;28.55;11.13;;;;;;;-10.63;100.00;98911.59;6203530;23;20036;-58
2024/01/24 01:42:32;;;;;;;36.00;13.23;;;;;;;-10.62;100.00;98902.34;6188401;23;20032;-59
2024/01/24 01:45:03;;;;;;;24.20;9.50;;;;;;;-10.62;100.00;98912.44;6202803;23;20035;-59
2024/01/24 01:47:33;;;;;;;39.03;12.15;;;;;;;-10.70;100.00;98904.53;6188334;23;20103;-58
2024/01/24 01:50:05;;;;;;;41.50;11.68;;;;;;;-10.68;100.00;98913.03;6202977;23;20024;-60
2024/01/24 01:52:36;;;;;;;24.67;9.30;;;;;;;-10.62;100.00;98903.19;6189043;23;20043;-60
2024/01/24 01:55:10;;;;;;;26.90;8.77;;;;;;;-10.64;100.00;98899.75;6202638;23;20104;-59
2024/01/24 01:57:43;;;;;;;22.98;10.07;;;;;;;-10.96;100.00;98841.09;6187214;23;20120;-58
2024/01/24 02:00:20;;;;;;;31.08;12.55;;;;;;;-10.64;100.00;98879.53;6187871;23;20024;-59
2024/01/24 02:02:51;;;;;;;32.70;11.93;;;;;;;-10.63;100.00;98886.34;6202952;23;20034;-59
2024/01/24 02:05:22;;;;;;;22.50;11.15;;;;;;;-10.60;100.00;98883.09;6188221;23;20028;-59
2024/01/24 02:07:53;;;;;;;13.82;6.68;;;;;;;-10.58;100.00;98877.31;6202986;23;20464;-59
2024/01/24 02:10:25;;;;;;;19.00;9.02;;;;;;;-10.54;100.00;98866.53;6188848;23;20456;-59
2024/01/24 02:12:55;;;;;;;21.00;9.02;;;;;;;-10.52;100.00;98859.91;6203102;23;20043;-59
2024/01/24 02:15:26;;;;;;;26.95;11.15;;;;;;;-10.52;100.00;98859.91;6188297;23;20027;-59
2024/01/24 02:17:57;;;;;;;45.55;14.15;;;;;;;-10.51;100.00;98864.13;6203252;23;20033;-58
2024/01/24 02:20:28;;;;;;;29.90;9.70;;;;;;;-10.52;100.00;98833.81;6188950;23;20024;-60
2024/01/24 02:22:59;;;;;;;21.45;8.00;;;;;;;-10.47;100.00;98852.53;6201731;23;20378;-57
2024/01/24 02:25:30;;;;;;;27.65;11.88;;;;;;;-10.50;100.00;98838.13;6188357;23;20034;-57
2024/01/24 02:28:01;;;;;;;49.15;14.00;;;;;;;-10.45;100.00;98841.69;6202820;23;20020;-57
2024/01/24 02:30:32;;;;;;;27.92;10.07;;;;;;;-10.40;100.00;98833.47;6187164;23;20029;-59
2024/01/24 02:33:02;;;;;;;17.23;9.10;;;;;;;-10.40;100.00;98836.00;6202463;23;20051;-58
2024/01/24 02:35:32;;;;;;;31.80;11.10;;;;;;;-10.42;100.00;98836.78;6188081;23;20205;-60
2024/01/24 02:38:03;;;;;;;27.45;9.93;;;;;;;-10.46;100.00;98829.88;6202110;23;20082;-58
2024/01/24 02:40:35;;;;;;;32.80;10.63;;;;;;;-10.47;100.00;98833.19;6188241;23;20131;-57
2024/01/24 02:43:06;;;;;;;46.72;15.80;;;;;;;-10.48;100.00;98849.16;6202001;23;20028;-58
2024/01/24 02:45:37;;;;;;;17.88;8.82;;;;;;;-10.71;100.00;98796.78;6187086;23;20020;-60
2024/01/24 02:48:08;;;;;;;25.77;10.23;;;;;;;-10.50;100.00;98843.16;6203211;23;20024;-57
2024/01/24 02:50:39;;;;;;;39.25;13.50;;;;;;;-10.50;100.00;98838.13;6187694;23;20051;-58
2024/01/24 02:53:10;;;;;;;31.40;14.35;;;;;;;-10.51;100.00;98821.22;6203116;23;20657;-60
2024/01/24 02:55:42;;;;;;;36.00;14.70;;;;;;;-10.52;100.00;98824.56;6188002;23;20058;-58
2024/01/24 02:58:13;;;;;;;36.33;13.57;;;;;;;-10.47;100.00;98823.09;6193146;23;20432;-59
2024/01/24 03:00:43;;;;;;;21.95;10.50;;;;;;;-10.48;100.00;98808.75;6202619;23;20078;-61
2024/01/24 03:03:13;;;;;;;39.47;14.48;;;;;;;-10.47;100.00;98802.91;6187655;23;20095;-61
2024/01/24 03:05:44;;;;;;;39.60;11.73;;;;;;;-10.47;100.00;98792.78;6202894;23;20349;-58
2024/01/24 03:08:15;;;;;;;21.55;9.73;;;;;;;-10.49;100.00;98779.25;6189812;23;20428;-62
2024/01/24 03:10:47;;;;;;;34.80;10.73;;;;;;;-10.47;100.00;98776.78;6204975;23;20047;-59
2024/01/24 03:13:18;;;;;;;35.63;12.25;;;;;;;-10.50;100.00;98767.44;6189784;23;20028;-62
2024/01/24 03:15:48;;;;;;;33.42;11.82;;;;;;;-10.51;100.00;98774.94;6204914;23;20027;-63
2024/01/24 03:18:19;;;;;;;32.80;12.85;;;;;;;-10.49;100.00;98789.34;6189923;23;20028;-58
2024/01/24 03:20:49;;;;;;;28.83;11.65;;;;;;;-10.47;100.00;98782.69;6204315;23;20022;-59
2024/01/24 03:23:20;;;;;;;39.47;13.68;;;;;;;-10.42;100.00;98791.34;6189514;23;20103;-59
2024/01/24 03:25:52;;;;;;;34.53;12.50;;;;;;;-10.38;100.00;98801.56;6203922;23;20370;-59
2024/01/24 03:28:22;;;;;;;33.97;11.25;;;;;;;-10.50;100.00;98764.91;6189953;23;20097;-60
2024/01/24 03:30:54;;;;;;;39.03;10.85;;;;;;;-10.42;100.00;98791.34;6203337;23;20082;-62
2024/01/24 03:33:25;;;;;;;40.72;14.77;;;;;;;-10.45;100.00;98798.78;6190461;23;20039;-61
2024/01/24 03:35:56;;;;;;;30.58;11.40;;;;;;;-10.41;100.00;98782.09;6204721;23;20051;-62
2024/01/24 03:38:26;;;;;;;33.25;11.45;;;;;;;-10.38;100.00;98767.09;6189882;23;20043;-61
2024/01/24 03:40:58;;;;;;;68.30;16.20;;;;;;;-10.40;100.00;98757.72;6204785;23;20043;-61
2024/01/24 03:43:29;;;;;;;46.85;13.43;;;;;;;-10.40;100.00;98777.94;6190724;23;20063;-58
2024/01/24 03:46:00;;;;;;;30.08;9.88;;;;;;;-10.28;100.00;98773.38;6204812;23;20024;-56
2024/01/24 03:48:30;;;;;;;29.90;8.85;;;;;;;-10.30;100.00;98760.69;6189533;23;20735;-59
2024/01/24 03:51:01;;;;;;;33.33;11.48;;;;;;;-10.24;100.00;98760.03;6203433;23;20023;-62
2024/01/24 03:53:32;;;;;;;29.25;9.80;;;;;;;-10.16;100.00;98768.78;6189773;23;20021;-59
2024/01/24 03:56:04;;;;;;;29.92;11.60;;;;;;;-10.20;100.00;98766.97;6202863;23;20020;-61
2024/01/24 03:58:36;;;;;;;34.72;12.30;;;;;;;-10.22;100.00;98764.34;6185953;23;20063;-58
2024/01/24 04:01:06;;;;;;;31.52;12.90;;;;;;;-10.27;100.00;98772.56;6202513;23;20024;-59
2024/01/24 04:03:37;;;;;;;29.33;9.93;;;;;;;-10.34;100.00;98770.59;6188575;23;20038;-59
2024/01/24 04:06:08;;;;;;;21.70;9.30;;;;;;;-10.31;100.00;98788.41;6203349;23;20020;-59
2024/01/24 04:08:38;;;;;;;27.00;10.32;;;;;;;-10.31;100.00;98788.41;6188763;23;20024;-61
2024/01/24 04:11:10;;;;;;;25.42;7.60;;;;;;;-10.28;100.00;98788.50;6203411;23;20456;-59
2024/01/24 04:13:43;;;;;;;26.25;10.40;;;;;;;-10.25;100.00;98778.53;6189334;23;20020;-58
2024/01/24 04:16:14;;;;;;;31.98;10.02;;;;;;;-10.25;100.00;98759.19;6189573;23;20052;-60
2024/01/24 04:18:44;;;;;;;47.63;15.02;;;;;;;-10.14;100.00;98772.25;6203350;23;20377;-62
2024/01/24 04:21:16;;;;;;;44.03;14.23;;;;;;;-10.02;100.00;98729.81;6189200;23;20461;-59
2024/01/24 04:23:46;;;;;;;29.70;10.25;;;;;;;-10.09;100.00;98740.47;6204686;23;20052;-61
2024/01/24 04:26:22;;;;;;;35.00;11.05;;;;;;;-10.27;100.00;98754.88;6189303;23;20441;-61
2024/01/24 04:28:53;;;;;;;30.15;11.00;;;;;;;-10.35;100.00;98763.84;6201707;23;20445;-60
2024/01/24 04:31:23;;;;;;;54.65;13.35;;;;;;;-10.35;100.00;98751.22;6189290;23;20020;-61
2024/01/24 04:33:54;;;;;;;29.02;10.02;;;;;;;-10.32;100.00;98746.28;6203919;23;20051;-63
2024/01/24 04:36:25;;;;;;;22.85;9.45;;;;;;;-10.32;100.00;98741.22;6189145;23;20028;-61
2024/01/24 04:38:55;;;;;;;28.02;10.93;;;;;;;-10.29;100.00;98726.19;6204242;23;20051;-60
2024/01/24 04:41:27;;;;;;;48.00;13.50;;;;;;;-10.18;100.00;98724.94;6189370;23;20063;-62
2024/01/24 04:43:58;;;;;;;26.42;9.95;;;;;;;-10.09;100.00;98730.34;6204251;23;20016;-62
2024/01/24 04:46:28;;;;;;;44.53;11.15;;;;;;;-10.10;100.00;98703.38;6190086;23;20027;-59
2024/01/24 04:48:59;;;;;;;21.45;6.20;;;;;;;-10.13;100.00;98733.59;6203625;23;20489;-60
2024/01/24 04:51:30;;;;;;;23.45;10.00;;;;;;;-10.11;100.00;98731.94;6187874;23;20123;-58
2024/01/24 04:54:00;;;;;;;31.15;10.95;;;;;;;-10.20;100.00;98734.97;6203878;23;20028;-58
2024/01/24 04:56:33;;;;;;;46.80;14.40;;;;;;;-10.31;100.00;98735.38;6188663;23;20035;-62
2024/01/24 04:59:03;;;;;;;36.58;13.27;;;;;;;-10.34;100.00;98747.88;6204071;23;20177;-58
2024/01/24 05:01:34;;;;;;;32.60;10.23;;;;;;;-10.29;100.00;98751.44;6189262;23;20024;-61
2024/01/24 05:04:05;;;;;;;35.35;10.93;;;;;;;-10.22;100.00;98748.34;6203614;23;20429;-59
2024/01/24 05:06:35;;;;;;;16.80;9.07;;;;;;;-10.18;100.00;98740.09;6188721;23;20031;-59
2024/01/24 05:09:06;;;;;;;23.38;10.20;;;;;;;-10.10;100.00;98756.44;6203744;23;20023;-59
2024/01/24 05:11:42;;;;;;;39.00;11.00;;;;;;;-10.11;100.00;98752.16;6188431;23;20077;-60
2024/01/24 05:14:12;;;;;;;29.83;10.60;;;;;;;-10.17;100.00;98726.66;6197918;23;20074;-59
2024/01/24 05:16:43;;;;;;;27.65;9.05;;;;;;;-10.09;100.00;98759.81;6203494;23;20119;-61
2024/01/24 05:19:13;;;;;;;28.77;9.52;;;;;;;-10.12;100.00;98752.97;6188676;23;20464;-62
2024/01/24 05:21:44;;;;;;;29.83;9.95;;;;;;;-10.16;100.00;98745.19;6203416;23;20445;-58
2024/01/24 05:24:15;;;;;;;22.00;8.63;;;;;;;-10.17;100.00;98735.91;6188913;23;20016;-58
2024/01/24 05:26:47;;;;;;;29.00;9.70;;;;;;;-10.26;100.00;98743.97;6203124;23;20107;-60
2024/01/24 05:29:17;;;;;;;36.03;12.10;;;;;;;-10.31;100.00;98750.50;6187709;23;20107;-60
2024/01/24 05:31:47;;;;;;;40.20;14.15;;;;;;;-10.37;100.00;98752.81;6203732;23;20016;-58
2024/01/24 05:34:18;;;;;;;31.02;11.90;;;;;;;-10.37;100.00;98742.69;6188709;23;20020;-60
2024/01/24 05:36:49;;;;;;;35.47;11.93;;;;;;;-10.32;100.00;98731.97;6203248;23;20035;-60
2024/01/24 05:39:20;;;;;;;42.53;13.68;;;;;;;-10.32;100.00;98741.22;6187942;23;20024;-61
2024/01/24 05:41:53;;;;;;;40.53;14.38;;;;;;;-10.31;100.00;98753.03;6202962;23;20095;-61
2024/01/24 05:44:24;;;;;;;33.92;11.98;;;;;;;-10.26;100.00;98751.53;6188440;23;20051;-59
2024/01/24 05:46:54;;;;;;;32.17;11.88;;;;;;;-10.29;100.00;98753.97;6202854;23;20738;-60
2024/01/24 05:49:25;;;;;;;32.88;10.57;;;;;;;-10.31;100.00;98758.94;6189354;23;20055;-60
2024/01/24 05:51:55;;;;;;;59.25;14.30;;;;;;;-10.68;100.00;98708.59;6203505;23;20030;-59
2024/01/24 05:54:26;;;;;;;31.48;10.73;;;;;;;-10.35;100.00;98756.25;6188665;23;20024;-58
2024/01/24 05:56:58;;;;;;;31.77;10.73;;;;;;;-10.37;100.00;98745.22;6203048;23;20020;-61
2024/01/24 05:59:29;;;;;;;31.35;9.88;;;;;;;-10.35;100.00;98736.06;6188737;23;20032;-58
2024/01/24 06:01:59;;;;;;;22.02;8.32;;;;;;;-10.40;100.00;98737.53;6203546;23;20020;-58
2024/01/24 06:04:30;;;;;;;20.13;7.75;;;;;;;-10.42;100.00;98761.03;6188749;23;20035;-58
2024/01/24 06:07:01;;;;;;;40.30;11.32;;;;;;;-10.39;100.00;98744.28;6203255;23;20024;-58
2024/01/24 06:09:32;;;;;;;28.27;9.50;;;;;;;-10.37;100.00;98755.31;6188356;23;20066;-62
2024/01/24 06:12:04;;;;;;;25.42;9.10;;;;;;;-10.37;100.00;98762.91;6203149;23;20030;-60
2024/01/24 06:14:35;;;;;;;41.42;13.10;;;;;;;-10.35;100.00;98761.31;6188430;23;20024;-60
2024/01/24 06:17:06;;;;;;;33.70;11.07;;;;;;;-10.34;100.00;98780.69;6203176;23;20102;-58
2024/01/24 06:19:37;;;;;;;31.10;11.13;;;;;;;-10.61;100.00;98723.19;6187465;23;20027;-59
2024/01/24 06:22:08;;;;;;;39.70;11.80;;;;;;;-10.31;100.00;98773.25;6202230;23;20451;-60
2024/01/24 06:24:39;;;;;;;37.25;10.68;;;;;;;-10.31;100.00;98779.16;6187487;23;20102;-60
2024/01/24 06:27:11;;;;;;;27.95;9.48;;;;;;;-10.32;100.00;98782.50;6202626;23;20048;-59
2024/01/24 06:29:41;;;;;;;48.67;11.82;;;;;;;-10.32;100.00;98772.38;6187610;23;20103;-58
2024/01/24 06:32:32;;;;;;;46.13;12.55;;;;;;;-10.30;100.00;98769.94;6186883;23;20024;-58
2024/01/24 06:35:02;;;;;;;26.58;10.10;;;;;;;-10.30;100.00;98790.13;6202544;23;20030;-59
2024/01/24 06:37:33;;;;;;;25.73;8.95;;;;;;;-10.33;100.00;98784.94;6187997;23;20017;-60
2024/01/24 06:40:04;;;;;;;31.17;9.25;;;;;;;-10.33;100.00;98774.84;6202475;23;20024;-61
2024/01/24 06:42:37;;;;;;;26.15;9.55;;;;;;;-10.34;100.00;98778.16;6190062;23;20020;-60
2024/01/24 06:45:09;;;;;;;21.83;9.27;;;;;;;-10.34;100.00;98780.69;6204937;23;20658;-60
2024/01/24 06:47:40;;;;;;;28.85;9.27;;;;;;;-10.37;100.00;98760.38;6189265;23;20020;-61
2024/01/24 06:50:13;;;;;;;28.58;10.15;;;;;;;-10.34;100.00;98775.66;6204551;23;20148;-60
2024/01/24 06:52:44;;;;;;;25.15;9.75;;;;;;;-10.36;100.00;98784.81;6189372;23;20024;-60
2024/01/24 06:55:15;;;;;;;37.40;10.85;;;;;;;-10.35;100.00;98786.56;6189325;23;20072;-60
2024/01/24 06:57:48;;;;;;;30.92;9.05;;;;;;;-10.32;100.00;98781.63;6204403;23;20024;-57
2024/01/24 07:00:19;;;;;;;52.35;12.13;;;;;;;-10.34;100.00;98779.03;6188837;23;20070;-59
2024/01/24 07:02:50;;;;;;;32.88;9.93;;;;;;;-10.32;100.00;98776.59;6204776;23;20028;-59
2024/01/24 07:05:20;;;;;;;25.27;9.63;;;;;;;-10.33;100.00;98764.72;6189720;23;20062;-59
2024/01/24 07:07:51;;;;;;;34.30;10.85;;;;;;;-10.32;100.00;98746.28;6204029;23;20522;-58
2024/01/24 07:10:21;;;;;;;31.05;9.85;;;;;;;-10.33;100.00;98744.53;6190448;23;20168;-60
2024/01/24 07:12:55;;;;;;;23.38;8.60;;;;;;;-10.33;100.00;98745.41;6204735;23;20047;-58
2024/01/24 07:15:27;;;;;;;26.02;9.43;;;;;;;-10.43;100.00;98718.06;6189556;23;20732;-59
2024/01/24 07:17:58;;;;;;;16.98;8.02;;;;;;;-10.33;100.00;98744.53;6204722;23;20730;-59
2024/01/24 07:20:29;;;;;;;41.60;9.35;;;;;;;-10.34;100.00;98726.00;6190083;23;20102;-59
2024/01/24 07:23:00;;;;;;;33.10;9.10;;;;;;;-10.30;100.00;98744.69;6204764;23;20051;-58
2024/01/24 07:25:30;;;;;;;30.35;8.65;;;;;;;-10.32;100.00;98726.94;6189788;23;20028;-57
2024/01/24 07:28:02;;;;;;;36.67;11.60;;;;;;;-10.28;100.00;98730.44;6204426;23;20083;-58
2024/01/24 07:30:32;;;;;;;54.70;10.48;;;;;;;-10.28;100.00;98732.97;6189606;23;20108;-60
2024/01/24 07:33:04;;;;;;;48.83;12.15;;;;;;;-10.27;100.00;98734.66;6204104;23;20027;-60
2024/01/24 07:35:35;;;;;;;30.98;9.07;;;;;;;-10.33;100.00;98716.75;6189142;23;20102;-59
2024/01/24 07:38:06;;;;;;;28.25;9.35;;;;;;;-10.24;100.00;98714.59;6204161;23;20553;-58
2024/01/24 07:40:37;;;;;;;35.85;10.82;;;;;;;-10.25;100.00;98707.81;6189895;23;20070;-58
2024/01/24 07:43:09;;;;;;;24.08;7.40;;;;;;;-10.25;100.00;98700.25;6204176;23;20099;-57
2024/01/24 07:45:39;;;;;;;18.10;7.68;;;;;;;-10.33;100.00;98694.03;6188496;23;20024;-57
2024/01/24 07:48:13;;;;;;;21.73;7.00;;;;;;;-10.21;100.00;98704.59;6203991;23;20074;-60
2024/01/24 07:50:45;;;;;;;25.55;7.85;;;;;;;-10.28;100.00;98690.03;6189079;23;20028;-57
2024/01/24 07:53:15;;;;;;;15.15;6.13;;;;;;;-10.20;100.00;98706.34;6188794;23;20538;-59
2024/01/24 07:55:46;;;;;;;26.10;9.07;;;;;;;-10.16;100.00;98718.28;6204411;23;20664;-59
2024/01/24 07:58:32;;;;;;;21.50;8.13;;;;;;;-10.20;100.00;98696.25;6189010;23;20058;-58
2024/01/24 08:01:03;;;;;;;27.58;7.32;;;;;;;-10.20;100.00;98691.19;6204032;23;20168;-57
2024/01/24 08:03:33;;;;;;;20.85;7.60;;;;;;;-10.17;100.00;98691.31;6188679;23;20468;-56
2024/01/24 08:06:04;;;;;;;26.00;6.82;;;;;;;-10.16;100.00;98687.97;6203613;23;20020;-59
2024/01/24 08:08:34;;;;;;;25.17;8.00;;;;;;;-10.14;100.00;98683.84;6189529;23;20093;-57
2024/01/24 08:11:05;;;;;;;30.38;8.02;;;;;;;-10.12;100.00;98694.03;6203824;23;20031;-58
2024/01/24 08:13:37;;;;;;;18.10;6.97;;;;;;;-10.15;100.00;98687.19;6189782;23;20453;-59
2024/01/24 08:16:09;;;;;;;18.27;7.70;;;;;;;-10.16;100.00;98693.00;6204056;23;20052;-59
2024/01/24 08:18:39;;;;;;;20.08;6.38;;;;;;;-10.10;100.00;98700.84;6188381;23;20034;-58
2024/01/24 08:21:10;;;;;;;39.47;6.82;;;;;;;-10.08;100.00;98679.06;6203053;23;20551;-58
2024/01/24 08:23:41;;;;;;;29.05;7.68;;;;;;;-10.08;100.00;98700.91;6186893;23;20107;-59
2024/01/24 08:26:19;;;;;;;17.45;6.53;;;;;;;-10.07;100.00;98685.81;6188917;23;20854;-58
2024/01/24 08:28:52;;;;;;;19.08;9.00;;;;;;;-10.07;100.00;98670.66;6203554;23;20101;-58
2024/01/24 08:31:23;;;;;;;31.75;9.57;;;;;;;-10.06;100.00;98685.03;6189644;23;20074;-56
2024/01/24 08:33:53;;;;;;;30.40;7.85;;;;;;;-10.03;100.00;98684.28;6203693;23;20023;-59
2024/01/24 08:36:24;;;;;;;19.15;7.18;;;;;;;-10.03;100.00;98695.25;6188377;23;20028;-59
2024/01/24 08:38:55;;;;;;;22.48;9.40;;;;;;;-10.11;100.00;98678.91;6203488;23;20039;-58
2024/01/24 08:41:25;;;;;;;21.08;7.60;;;;;;;-10.04;100.00;98673.28;6188927;23;20030;-58
2024/01/24 08:43:58;;;;;;;18.52;8.75;;;;;;;-10.01;100.00;98686.06;6203982;23;20028;-58
2024/01/24 08:46:29;;;;;;;25.77;7.32;;;;;;;-10.01;100.00;98697.81;6189341;23;20024;-57
2024/01/24 08:49:00;;;;;;;22.42;8.02;;;;;;;-10.01;100.00;98696.19;6203556;23;20476;-59
2024/01/24 08:51:32;;;;;;;18.95;7.22;;;;;;;-9.99;100.00;98694.53;6188511;23;20031;-58
2024/01/24 08:54:03;;;;;;;32.58;9.63;;;;;;;-9.98;100.00;98701.34;6203357;23;20024;-59
2024/01/24 08:56:35;;;;;;;28.67;9.02;;;;;;;-9.95;100.00;98697.22;6188540;23;20032;-58
2024/01/24 08:59:07;;;;;;;23.05;7.55;;;;;;;-9.93;100.00;98710.75;6202459;23;20027;-57
2024/01/24 09:01:38;;;;;;;22.02;6.93;;;;;;;-9.92;100.00;98703.25;6188605;23;20031;-59
2024/01/24 09:04:10;;;;;;;24.98;6.50;;;;;;;-9.91;100.00;98709.16;6202535;23;20020;-57
2024/01/24 09:06:42;;;;;;;31.02;7.72;;;;;;;-9.92;100.00;98712.50;6187009;23;20042;-60
2024/01/24 09:09:14;;;;;;;18.48;6.50;;;;;;;-9.91;100.00;98711.69;6187854;23;20375;-59
2024/01/24 09:11:46;;;;;;;17.58;7.00;;;;;;;-9.89;100.00;98702.50;6202473;23;20093;-58
2024/01/24 09:14:27;;;;;;;27.73;8.48;;;;;;;-9.87;100.00;98721.13;6188987;23;20126;-59
2024/01/24 09:16:58;;;;;;;31.33;9.35;;;;;;;-9.86;100.00;98717.78;6203897;23;20027;-57
2024/01/24 09:19:30;;;;;;;25.50;7.00;;;;;;;-9.85;100.00;98709.41;6189436;23;20111;-58
2024/01/24 09:22:02;;;;;;;31.73;7.60;;;;;;;-9.83;100.00;98717.91;6203297;23;20039;-58
2024/01/24 09:24:33;;;;;;;26.35;7.57;;;;;;;-9.85;100.00;98699.31;6189376;23;20033;-58
2024/01/24 09:27:04;;;;;;;23.95;7.53;;;;;;;-9.85;100.00;98719.53;6203333;23;20030;-59
2024/01/24 09:29:37;;;;;;;13.60;6.22;;;;;;;-9.83;100.00;98722.97;6187959;22;20031;-58
2024/01/24 09:32:08;;;;;;;24.25;9.45;;;;;;;-9.83;100.00;98702.75;6203155;23;20153;-59
2024/01/24 09:34:38;;;;;;;12.10;5.70;;;;;;;-9.82;100.00;98712.06;6188438;23;20055;-58
2024/01/24 09:37:09;;;;;;;13.40;6.18;;;;;;;-9.83;100.00;98705.28;6203090;23;20060;-56
2024/01/24 09:39:40;;;;;;;30.15;7.55;;;;;;;-9.85;100.00;98691.72;6187702;23;20043;-58
2024/01/24 09:42:21;;;;;;;22.45;7.90;;;;;;;-9.81;100.00;98691.00;6202447;23;20526;-57
2024/01/24 09:44:54;;;;;;;19.92;6.43;;;;;;;-9.88;100.00;98684.00;6203194;23;20034;-58
2024/01/24 09:47:26;;;;;;;22.55;6.90;;;;;;;-9.81;100.00;98701.13;6188242;23;20403;-56
2024/01/24 09:49:59;;;;;;;20.75;6.47;;;;;;;-9.80;100.00;98687.72;6203446;23;20091;-57
2024/01/24 09:52:30;;;;;;;22.10;6.57;;;;;;;-9.79;100.00;98684.38;6189829;23;20410;-60
2024/01/24 09:55:04;;;;;;;23.73;6.85;;;;;;;-9.87;100.00;98688.25;6202515;23;20024;-57
2024/01/24 09:57:35;;;;;;;29.55;7.93;;;;;;;-10.12;100.00;98644.34;6187800;23;20456;-57
2024/01/24 10:00:10;;;;;;;18.92;7.05;;;;;;;-10.14;100.00;98630.78;6202498;23;20024;-58
2024/01/24 10:02:42;;;;;;;27.17;7.65;;;;;;;-9.77;100.00;98687.81;6187325;23;20023;-57
2024/01/24 10:05:19;;;;;;;20.70;8.52;;;;;;;-9.78;100.00;98686.09;6194481;23;20047;-57
2024/01/24 10:07:51;;;;;;;28.92;7.43;;;;;;;-9.76;100.00;98684.47;6201415;23;20028;-57
2024/01/24 10:10:22;;;;;;;23.35;8.13;;;;;;;-9.79;100.00;98694.47;6186969;23;20047;-57
2024/01/24 10:12:54;;;;;;;29.98;9.25;;;;;;;-9.77;100.00;98702.97;6202823;23;20070;-58
2024/01/24 10:15:26;;;;;;;39.03;9.05;;;;;;;-9.77;100.00;98693.72;6185410;23;20461;-59
2024/01/24 10:17:57;;;;;;;26.55;7.70;;;;;;;-9.77;100.00;98687.81;6201094;23;20016;-56
2024/01/24 10:20:28;;;;;;;24.95;8.75;;;;;;;-9.75;100.00;98701.38;6188149;23;20028;-56
2024/01/24 10:23:01;;;;;;;28.13;7.05;;;;;;;-9.74;100.00;98695.50;6203130;23;20591;-58
2024/01/24 10:25:32;;;;;;;36.90;10.60;;;;;;;-9.73;100.00;98704.84;6188040;23;20434;-57
2024/01/24 10:28:02;;;;;;;30.73;7.65;;;;;;;-9.74;100.00;98687.94;6202371;23;20020;-56
2024/01/24 10:30:35;;;;;;;14.70;5.53;;;;;;;-9.71;100.00;98693.09;6187671;23;20029;-57
2024/01/24 10:33:07;;;;;;;9.40;4.65;;;;;;;-9.71;100.00;98698.16;6202360;23;20047;-57
2024/01/24 10:35:37;;;;;;;23.40;6.30;;;;;;;-9.68;100.00;98693.25;6186816;23;20427;-57
2024/01/24 10:38:12;;;;;;;20.75;6.18;;;;;;;-9.65;100.00;98692.50;6202425;23;20077;-58
2024/01/24 10:40:43;;;;;;;13.80;5.70;;;;;;;-9.62;100.00;98697.66;6187223;23;20508;-58
2024/01/24 10:43:13;;;;;;;19.77;5.93;;;;;;;-9.91;100.00;98638.41;6187689;23;20131;-57
2024/01/24 10:45:46;;;;;;;17.65;5.57;;;;;;;-9.60;100.00;98686.78;6201964;23;20024;-57
2024/01/24 10:48:19;;;;;;;13.45;4.20;;;;;;;-9.60;100.00;98691.00;6187021;23;20449;-57
2024/01/24 10:50:52;;;;;;;10.70;4.97;;;;;;;-9.56;100.00;98686.13;6202167;23;20020;-59
2024/01/24 10:53:23;;;;;;;15.80;4.78;;;;;;;-9.52;100.00;98688.75;6187392;23;20393;-58
2024/01/24 10:55:55;;;;;;;21.08;5.90;;;;;;;-9.51;100.00;98700.59;6202216;23;20035;-58
2024/01/24 10:58:29;;;;;;;16.63;4.05;;;;;;;-9.51;100.00;98686.25;6188166;23;20024;-57
2024/01/24 11:01:02;;;;;;;11.10;4.40;;;;;;;-9.48;100.00;98695.63;6201894;23;20099;-55
2024/01/24 11:03:34;;;;;;;7.60;3.28;;;;;;;-9.46;100.00;98699.09;6187186;23;20017;-56
2024/01/24 11:06:12;;;;;;;13.80;3.88;;;;;;;-9.45;100.00;98695.78;6202107;23;20051;-58
2024/01/24 11:08:48;;;;;;;16.23;4.25;;;;;;;-9.43;100.00;98679.00;6187289;23;20099;-56
2024/01/24 11:11:23;;;;;;;13.77;4.13;;;;;;;-9.43;100.00;98695.03;6187298;23;20028;-58
2024/01/24 11:13:54;;;;;;;14.00;3.90;;;;;;;-9.40;100.00;98696.81;6201128;23;20336;-57
2024/01/24 11:16:32;;;;;;;21.30;5.18;;;;;;;-9.41;100.00;98703.53;6186601;23;20456;-58
2024/01/24 11:19:22;;;;;;;15.82;4.28;;;;;;;-9.40;100.00;98699.34;6202674;23;20031;-56
2024/01/24 11:21:54;;;;;;;12.57;3.95;;;;;;;-9.47;100.00;98684.72;6200855;23;20035;-56
2024/01/24 11:24:49;;;;;;;18.60;6.20;;;;;;;-9.38;100.00;98678.34;6187563;23;20028;-58
2024/01/24 11:27:32;;;;;;;21.23;4.50;;;;;;;-9.37;100.00;98689.31;6187996;23;20111;-57